createdAt,value
2022-08-09T00:02:06.342Z,57.27
2022-08-09T00:04:37.618Z,58.57
2022-08-09T00:07:10.756Z,59.85
2022-08-09T00:09:41.997Z,60.82
2022-08-09T00:12:22.854Z,63.01
2022-08-09T00:14:56.846Z,64.60
2022-08-09T00:18:07.560Z,61.27
2022-08-09T00:20:18.106Z,56.59
2022-08-09T00:22:49.228Z,56.30
2022-08-09T00:25:23.345Z,58.04
2022-08-09T00:28:04.228Z,58.40
2022-08-09T00:30:35.716Z,59.64
2022-08-09T00:33:07.024Z,60.68
2022-08-09T00:35:43.541Z,64.68
2022-08-09T00:38:15.344Z,64.94
2022-08-09T00:40:52.688Z,62.21
2022-08-09T00:44:10.713Z,57.31
2022-08-09T00:46:55.932Z,56.02
2022-08-09T00:49:05.490Z,56.59
2022-08-09T00:51:54.654Z,58.24
2022-08-09T00:54:31.412Z,59.51
2022-08-09T00:57:10.130Z,61.60
2022-08-09T00:59:47.098Z,64.99
2022-08-09T01:02:24.358Z,64.43
2022-08-09T01:05:02.555Z,60.78
2022-08-09T01:07:59.914Z,57.45
2022-08-09T01:10:35.228Z,56.50
2022-08-09T01:13:16.826Z,57.82
2022-08-09T01:15:52.518Z,59.69
2022-08-09T01:18:30.549Z,59.56
2022-08-09T01:21:09.884Z,61.01
2022-08-09T01:24:02.325Z,64.57
2022-08-09T01:26:46.303Z,64.48
2022-08-09T01:29:28.134Z,60.50
2022-08-09T01:32:30.738Z,56.32
2022-08-09T01:34:55.200Z,55.96
2022-08-09T01:37:43.101Z,57.03
2022-08-09T01:40:23.105Z,59.71
2022-08-09T01:42:59.437Z,60.45
2022-08-09T01:45:31.763Z,61.12
2022-08-09T01:48:05.969Z,64.24
2022-08-09T01:50:41.886Z,64.50
2022-08-09T01:53:19.575Z,60.96
2022-08-09T01:55:51.536Z,55.95
2022-08-09T01:58:27.275Z,56.38
2022-08-09T02:00:59.542Z,57.02
2022-08-09T02:03:31.421Z,58.14
2022-08-09T02:06:06.425Z,58.52
2022-08-09T02:08:58.599Z,59.26
2022-08-09T02:11:42.886Z,60.06
2022-08-09T02:14:26.385Z,61.23
2022-08-09T02:17:15.166Z,61.65
2022-08-09T02:19:47.193Z,61.73
2022-08-09T02:22:27.268Z,63.57
2022-08-09T02:25:03.811Z,61.75
2022-08-09T02:27:57.471Z,56.51
2022-08-09T02:30:29.705Z,55.70
2022-08-09T02:33:01.828Z,56.81
2022-08-09T02:36:03.369Z,57.83
2022-08-09T02:38:28.669Z,59.18
2022-08-09T02:41:04.545Z,59.85
2022-08-09T02:43:42.550Z,59.94
2022-08-09T02:46:27.498Z,60.93
2022-08-09T02:48:56.980Z,61.02
2022-08-09T02:51:36.945Z,60.67
2022-08-09T02:54:14.165Z,61.36
2022-08-09T02:56:51.406Z,64.14
2022-08-09T02:59:26.498Z,62.35
2022-08-09T03:02:11.903Z,56.92
2022-08-09T03:04:50.774Z,57.38
2022-08-09T03:07:22.528Z,58.32
2022-08-09T03:09:56.719Z,59.37
2022-08-09T03:12:31.783Z,59.73
2022-08-09T03:15:03.257Z,60.34
2022-08-09T03:17:37.538Z,60.95
2022-08-09T03:20:10.999Z,61.89
2022-08-09T03:22:44.882Z,63.52
2022-08-09T03:25:26.799Z,61.35
2022-08-09T03:28:11.297Z,56.23
2022-08-09T03:30:43.401Z,56.19
2022-08-09T03:33:19.179Z,57.27
2022-08-09T03:36:15.525Z,58.09
2022-08-09T03:38:44.606Z,58.67
2022-08-09T03:41:16.611Z,59.59
2022-08-09T03:44:02.943Z,60.57
2022-08-09T03:46:39.507Z,61.01
2022-08-09T03:49:10.965Z,61.47
2022-08-09T03:51:57.325Z,63.43
2022-08-09T03:54:31.797Z,61.60
2022-08-09T03:57:04.462Z,56.36
2022-08-09T03:59:53.759Z,56.14
2022-08-09T04:02:28.591Z,57.02
2022-08-09T04:05:00.648Z,58.69
2022-08-09T04:07:33.905Z,59.22
2022-08-09T04:10:28.841Z,60.23
2022-08-09T04:13:04.436Z,60.82
2022-08-09T04:16:18.697Z,61.39
2022-08-09T04:18:26.010Z,61.58
2022-08-09T04:20:58.816Z,61.94
2022-08-09T04:23:29.410Z,63.59
2022-08-09T04:26:01.594Z,62.21
2022-08-09T04:28:36.292Z,57.25
2022-08-09T04:31:10.203Z,55.79
2022-08-09T04:33:47.606Z,56.87
2022-08-09T04:36:25.751Z,58.17
2022-08-09T04:38:57.232Z,58.81
2022-08-09T04:41:32.599Z,59.70
2022-08-09T04:44:10.952Z,60.38
2022-08-09T04:46:58.909Z,60.44
2022-08-09T04:49:52.196Z,60.70
2022-08-09T04:52:26.450Z,61.50
2022-08-09T04:54:58.731Z,62.02
2022-08-09T04:57:58.747Z,61.56
2022-08-09T05:00:21.562Z,61.95
2022-08-09T05:02:53.079Z,62.50
2022-08-09T05:05:31.903Z,64.27
2022-08-09T05:08:15.229Z,60.94
2022-08-09T05:10:46.222Z,55.10
2022-08-09T05:13:16.896Z,54.81
2022-08-09T05:15:56.438Z,56.39
2022-08-09T05:18:55.161Z,58.40
2022-08-09T05:21:24.439Z,59.56
2022-08-09T05:24:01.628Z,59.51
2022-08-09T05:26:45.284Z,59.41
2022-08-09T05:29:21.827Z,60.24
2022-08-09T05:31:57.462Z,60.72
2022-08-09T05:34:30.983Z,61.21
2022-08-09T05:37:06.199Z,61.31
2022-08-09T05:39:43.480Z,61.47
2022-08-09T05:42:17.936Z,61.80
2022-08-09T05:44:52.611Z,62.18
2022-08-09T05:47:52.448Z,62.01
2022-08-09T05:51:42.742Z,61.70
2022-08-09T05:54:22.944Z,61.98
2022-08-09T05:56:56.996Z,62.04
2022-08-09T05:59:27.250Z,62.05
2022-08-09T06:01:59.570Z,61.95
2022-08-09T06:04:35.080Z,61.98
2022-08-09T06:07:05.901Z,61.95
2022-08-09T06:09:54.052Z,62.06
2022-08-09T06:12:26.390Z,62.04
2022-08-09T06:15:00.962Z,61.87
2022-08-09T06:17:40.389Z,61.73
2022-08-09T06:20:11.868Z,61.46
2022-08-09T06:22:49.054Z,60.98
2022-08-09T06:25:21.249Z,59.76
2022-08-09T06:27:52.362Z,59.91
2022-08-09T06:30:23.089Z,60.06
2022-08-09T06:33:00.474Z,60.11
2022-08-09T06:35:56.888Z,59.53
2022-08-09T06:38:32.136Z,58.75
2022-08-09T06:41:13.480Z,58.56
2022-08-09T06:43:49.175Z,57.64
2022-08-09T06:46:40.219Z,57.38
2022-08-09T06:49:10.095Z,57.25
2022-08-09T06:51:40.607Z,56.46
2022-08-09T06:54:14.781Z,56.36
2022-08-09T06:56:46.380Z,56.58
2022-08-09T07:00:49.223Z,56.37
2022-08-09T07:02:07.942Z,55.27
2022-08-09T07:04:39.701Z,55.64
2022-08-09T07:07:11.834Z,55.68
2022-08-09T07:09:55.253Z,55.93
2022-08-09T07:12:38.853Z,56.11
2022-08-09T07:16:39.285Z,55.63
2022-08-09T07:18:03.836Z,53.50
2022-08-09T07:20:34.573Z,52.85
2022-08-09T07:23:19.043Z,53.28
2022-08-09T07:25:52.280Z,53.73
2022-08-09T07:28:34.953Z,53.52
2022-08-09T07:31:06.589Z,52.82
2022-08-09T07:33:52.810Z,52.88
2022-08-09T07:36:26.637Z,53.05
2022-08-09T07:39:00.882Z,51.76
2022-08-09T07:41:38.671Z,51.23
2022-08-09T07:44:09.615Z,51.30
2022-08-09T07:46:40.879Z,51.01
2022-08-09T07:49:15.372Z,50.49
2022-08-09T07:52:05.785Z,49.76
2022-08-09T07:54:38.542Z,50.05
2022-08-09T07:57:11.870Z,50.03
2022-08-09T07:59:51.892Z,49.77
2022-08-09T08:02:29.340Z,49.39
2022-08-09T08:05:00.245Z,49.28
2022-08-09T08:08:42.623Z,47.99
2022-08-09T08:10:27.366Z,47.80
2022-08-09T08:13:04.807Z,47.66
2022-08-09T08:15:39.290Z,47.94
2022-08-09T08:18:09.965Z,47.56
2022-08-09T08:20:44.995Z,47.63
2022-08-09T08:23:17.948Z,46.12
2022-08-09T08:25:48.283Z,45.28
2022-08-09T08:28:32.176Z,45.25
2022-08-09T08:31:13.826Z,45.01
2022-08-09T08:33:53.001Z,43.57
2022-08-09T08:36:28.799Z,43.59
2022-08-09T08:39:00.983Z,43.25
2022-08-09T08:41:41.738Z,43.58
2022-08-09T08:44:28.757Z,43.29
2022-08-09T08:47:05.032Z,42.67
2022-08-09T08:49:48.256Z,43.24
2022-08-09T08:55:13.644Z,43.54
2022-08-09T08:57:57.290Z,43.29
2022-08-09T09:00:30.205Z,43.09
2022-08-09T09:03:12.240Z,43.51
2022-08-09T09:06:03.291Z,44.02
2022-08-09T09:08:42.275Z,42.67
2022-08-09T09:11:13.706Z,42.40
2022-08-09T09:13:56.159Z,42.28
2022-08-09T09:16:32.434Z,42.28
2022-08-09T09:22:05.322Z,43.12
2022-08-09T09:24:39.778Z,42.30
2022-08-09T09:28:03.807Z,42.04
2022-08-09T09:30:28.901Z,41.95
2022-08-09T09:33:16.526Z,42.23
2022-08-09T09:36:01.802Z,42.45
2022-08-09T09:38:45.385Z,42.64
2022-08-09T09:41:49.338Z,42.25
2022-08-09T09:44:28.040Z,42.20
2022-08-09T09:47:08.357Z,42.30
2022-08-09T09:49:56.513Z,41.79
2022-08-09T09:52:36.663Z,42.64
2022-08-09T09:55:23.892Z,42.39
2022-08-09T09:58:17.883Z,42.28
2022-08-09T10:00:54.027Z,42.85
2022-08-09T10:03:43.660Z,43.01
2022-08-09T10:06:14.964Z,43.08
2022-08-09T10:08:57.322Z,43.04
2022-08-09T10:11:59.173Z,42.91
2022-08-09T10:14:30.612Z,43.19
2022-08-09T10:17:40.147Z,43.57
2022-08-09T10:20:03.897Z,43.80
2022-08-09T10:22:35.376Z,44.25
2022-08-09T10:25:12.115Z,43.78
2022-08-09T10:27:57.358Z,43.68
2022-08-09T10:34:04.377Z,44.22
2022-08-09T10:36:12.318Z,44.00
2022-08-09T10:38:57.286Z,43.87
2022-08-09T10:41:31.238Z,43.96
2022-08-09T10:44:02.442Z,44.01
2022-08-09T10:46:54.493Z,44.28
2022-08-09T10:49:24.568Z,44.38
2022-08-09T10:52:26.426Z,44.38
2022-08-09T10:54:57.262Z,44.64
2022-08-09T10:57:37.522Z,44.50
2022-08-09T11:00:32.936Z,44.14
2022-08-09T11:03:19.055Z,44.50
2022-08-09T11:06:24.715Z,44.19
2022-08-09T11:09:15.553Z,43.98
2022-08-09T11:12:05.254Z,44.03
2022-08-09T11:14:37.932Z,43.68
2022-08-09T11:17:06.824Z,43.09
2022-08-09T11:20:10.636Z,42.68
2022-08-09T11:23:00.696Z,42.95
2022-08-09T11:25:47.333Z,42.82
2022-08-09T11:28:34.633Z,41.91
2022-08-09T11:31:33.955Z,39.89
2022-08-09T11:34:11.039Z,39.59
2022-08-09T11:36:43.498Z,39.80
2022-08-09T11:39:14.946Z,39.65
2022-08-09T11:41:48.803Z,39.56
2022-08-09T11:44:19.912Z,39.70
2022-08-09T11:46:54.346Z,40.12
2022-08-09T11:49:42.969Z,39.68
2022-08-09T11:53:03.530Z,39.41
2022-08-09T11:55:51.577Z,39.20
2022-08-09T11:58:40.273Z,39.62
2022-08-09T12:02:00.724Z,38.77
2022-08-09T12:04:20.553Z,39.05
2022-08-09T12:06:56.408Z,38.98
2022-08-09T12:09:33.588Z,38.56
2022-08-09T12:12:12.954Z,39.01
2022-08-09T12:15:08.244Z,39.31
2022-08-09T12:17:43.575Z,39.23
2022-08-09T12:20:21.618Z,39.43
2022-08-09T12:22:56.060Z,39.71
2022-08-09T12:25:31.934Z,39.38
2022-08-09T12:29:12.072Z,39.50
2022-08-09T12:31:10.740Z,39.47
2022-08-09T12:34:01.069Z,39.67
2022-08-09T12:36:35.983Z,39.38
2022-08-09T12:39:14.692Z,39.22
2022-08-09T12:41:45.809Z,38.06
2022-08-09T12:44:16.314Z,38.84
2022-08-09T12:46:55.255Z,38.14
2022-08-09T12:49:26.790Z,37.66
2022-08-09T12:52:02.038Z,37.95
2022-08-09T12:54:47.352Z,38.53
2022-08-09T12:57:41.645Z,38.56
2022-08-09T13:00:18.445Z,37.40
2022-08-09T13:02:54.261Z,35.99
2022-08-09T13:05:26.517Z,35.42
2022-08-09T13:08:12.859Z,35.15
2022-08-09T13:10:52.355Z,35.17
2022-08-09T13:13:37.939Z,34.95
2022-08-09T13:16:22.045Z,35.25
2022-08-09T13:18:54.316Z,35.96
2022-08-09T13:22:37.087Z,36.32
2022-08-09T13:24:53.650Z,36.73
2022-08-09T13:27:22.776Z,37.19
2022-08-09T13:30:04.323Z,37.28
2022-08-09T13:32:48.578Z,36.79
2022-08-09T13:35:20.237Z,36.07
2022-08-09T13:37:52.857Z,36.05
2022-08-09T13:41:52.044Z,35.97
2022-08-09T13:43:15.981Z,34.73
2022-08-09T13:46:44.586Z,34.51
2022-08-09T13:48:42.322Z,33.49
2022-08-09T13:51:12.900Z,32.89
2022-08-09T13:53:44.720Z,32.63
2022-08-09T13:56:15.480Z,31.34
2022-08-09T13:58:49.297Z,29.64
2022-08-09T14:02:01.368Z,27.53
2022-08-09T14:04:11.874Z,27.42
2022-08-09T14:06:46.452Z,27.81
2022-08-09T14:09:18.202Z,26.80
2022-08-09T14:11:48.822Z,27.59
2022-08-09T14:14:25.023Z,26.83
2022-08-09T14:16:57.357Z,26.87
2022-08-09T14:19:33.064Z,26.77
2022-08-09T14:22:04.354Z,26.25
2022-08-09T14:24:35.389Z,25.34
2022-08-09T14:27:19.921Z,24.90
2022-08-09T14:30:34.137Z,25.37
2022-08-09T14:32:42.876Z,24.95
2022-08-09T14:35:13.874Z,23.85
2022-08-09T14:38:02.984Z,23.97
2022-08-09T14:41:01.186Z,25.01
2022-08-09T14:43:25.893Z,26.22
2022-08-09T14:46:57.243Z,27.45
2022-08-09T14:49:10.598Z,28.70
2022-08-09T14:51:42.232Z,29.67
2022-08-09T14:54:13.669Z,30.20
2022-08-09T14:56:57.315Z,30.77
2022-08-09T14:59:29.564Z,31.22
2022-08-09T15:02:01.540Z,30.87
2022-08-09T15:04:33.398Z,30.73
2022-08-09T15:07:04.179Z,31.06
2022-08-09T15:10:04.486Z,30.81
2022-08-09T15:12:25.575Z,30.61
2022-08-09T15:14:58.043Z,30.99
2022-08-09T15:17:29.089Z,31.75
2022-08-09T15:20:02.672Z,32.63
2022-08-09T15:22:34.462Z,34.02
2022-08-09T15:25:39.315Z,35.12
2022-08-09T15:28:26.227Z,35.98
2022-08-09T15:31:08.581Z,36.96
2022-08-09T15:34:32.341Z,37.30
2022-08-09T15:36:32.177Z,37.55
2022-08-09T15:39:03.237Z,37.59
2022-08-09T15:41:34.783Z,37.97
2022-08-09T15:44:06.159Z,38.10
2022-08-09T15:46:36.854Z,38.15
2022-08-09T15:49:22.423Z,38.39
2022-08-09T15:52:04.712Z,38.30
2022-08-09T15:54:52.613Z,38.75
2022-08-09T15:57:35.644Z,38.62
2022-08-09T16:00:24.361Z,38.69
2022-08-09T16:02:57.177Z,38.93
2022-08-09T16:05:53.905Z,39.15
2022-08-09T16:08:30.049Z,39.57
2022-08-09T16:11:02.813Z,39.71
2022-08-09T16:14:03.664Z,39.79
2022-08-09T16:16:28.387Z,39.93
2022-08-09T16:18:59.074Z,40.19
2022-08-09T16:21:31.798Z,40.08
2022-08-09T16:24:05.610Z,40.12
2022-08-09T16:26:44.095Z,40.20
2022-08-09T16:29:20.139Z,40.32
2022-08-09T16:32:19.002Z,40.61
2022-08-09T16:34:55.465Z,40.46
2022-08-09T16:37:55.605Z,40.75
2022-08-09T16:40:29.963Z,40.59
2022-08-09T16:43:11.570Z,40.57
2022-08-09T16:45:44.304Z,40.41
2022-08-09T16:48:39.645Z,39.95
2022-08-09T16:51:07.874Z,39.55
2022-08-09T16:53:56.232Z,39.47
2022-08-09T16:56:30.885Z,39.65
2022-08-09T16:59:06.728Z,39.75
2022-08-09T17:01:44.642Z,40.05
2022-08-09T17:04:26.080Z,40.10
2022-08-09T17:08:41.584Z,40.24
2022-08-09T17:09:51.295Z,40.58
2022-08-09T17:12:21.949Z,40.79
2022-08-09T17:14:58.209Z,41.13
2022-08-09T17:17:30.764Z,41.25
2022-08-09T17:20:32.696Z,40.94
2022-08-09T17:23:14.638Z,40.86
2022-08-09T17:25:53.088Z,40.89
2022-08-09T17:28:24.002Z,41.09
2022-08-09T17:30:54.731Z,41.21
2022-08-09T17:33:25.470Z,41.13
2022-08-09T17:35:56.610Z,41.12
2022-08-09T17:38:32.404Z,41.36
2022-08-09T17:41:08.316Z,41.32
2022-08-09T17:43:38.944Z,41.43
2022-08-09T17:46:11.528Z,41.70
2022-08-09T17:48:52.276Z,41.97
2022-08-09T17:51:23.842Z,42.15
2022-08-09T17:53:55.829Z,42.36
2022-08-09T17:56:28.962Z,42.74
2022-08-09T17:59:09.441Z,42.81
2022-08-09T18:02:06.374Z,43.01
2022-08-09T18:04:33.916Z,42.97
2022-08-09T18:07:07.638Z,43.33
2022-08-09T18:10:04.696Z,43.58
2022-08-09T18:12:40.677Z,43.66
2022-08-09T18:15:50.390Z,43.85
2022-08-09T18:18:25.525Z,44.15
2022-08-09T18:21:11.592Z,44.36
2022-08-09T18:24:10.174Z,44.50
2022-08-09T18:26:38.201Z,45.27
2022-08-09T18:30:41.160Z,45.32
2022-08-09T18:32:08.544Z,45.71
2022-08-09T18:34:40.099Z,45.82
2022-08-09T18:37:47.690Z,46.21
2022-08-09T18:40:01.041Z,46.79
2022-08-09T18:42:31.614Z,46.55
2022-08-09T18:45:08.741Z,47.00
2022-08-09T18:47:39.279Z,47.01
2022-08-09T18:50:10.206Z,47.19
2022-08-09T18:52:44.280Z,47.50
2022-08-09T18:55:14.871Z,48.01
2022-08-09T18:57:59.454Z,48.02
2022-08-09T19:00:30.178Z,48.03
2022-08-09T19:03:00.557Z,48.31
2022-08-09T19:05:48.790Z,48.49
2022-08-09T19:08:23.665Z,48.16
2022-08-09T19:10:59.020Z,48.37
2022-08-09T19:13:38.254Z,48.41
2022-08-09T19:16:21.134Z,48.62
2022-08-09T19:18:51.854Z,48.63
2022-08-09T19:21:52.244Z,49.93
2022-08-09T19:24:32.133Z,50.76
2022-08-09T19:27:03.996Z,50.58
2022-08-09T19:29:59.742Z,50.35
2022-08-09T19:32:29.626Z,50.03
2022-08-09T19:35:02.297Z,50.31
2022-08-09T19:37:54.135Z,50.62
2022-08-09T19:40:34.025Z,51.91
2022-08-09T19:43:10.375Z,51.68
2022-08-09T19:45:47.289Z,52.16
2022-08-09T19:49:00.858Z,52.06
2022-08-09T19:51:09.368Z,52.11
2022-08-09T19:53:45.316Z,52.19
2022-08-09T19:56:28.555Z,52.51
2022-08-09T19:59:39.276Z,53.27
2022-08-09T20:02:00.511Z,53.22
2022-08-09T20:04:40.764Z,53.25
2022-08-09T20:07:23.704Z,53.60
2022-08-09T20:09:54.402Z,53.88
2022-08-09T20:12:31.704Z,53.82
2022-08-09T20:16:31.830Z,54.05
2022-08-09T20:18:01.000Z,54.45
2022-08-09T20:20:31.678Z,54.77
2022-08-09T20:23:02.043Z,54.98
2022-08-09T20:25:49.582Z,54.95
2022-08-09T20:28:31.951Z,55.31
2022-08-09T20:31:09.290Z,55.36
2022-08-09T20:33:43.922Z,55.27
2022-08-09T20:36:15.450Z,54.86
2022-08-09T20:39:29.192Z,54.84
2022-08-09T20:41:41.542Z,55.18
2022-08-09T20:44:12.091Z,55.12
2022-08-09T20:46:44.934Z,55.38
2022-08-09T20:49:16.148Z,55.91
2022-08-09T20:51:50.805Z,55.63
2022-08-09T20:54:22.172Z,55.47
2022-08-09T20:56:56.077Z,56.54
2022-08-09T21:00:19.304Z,56.83
2022-08-09T21:02:18.865Z,56.96
2022-08-09T21:05:54.030Z,56.93
2022-08-09T21:07:44.501Z,57.50
2022-08-09T21:10:15.318Z,57.45
2022-08-09T21:15:34.800Z,57.74
2022-08-09T21:18:21.641Z,57.57
2022-08-09T21:20:56.792Z,58.07
2022-08-09T21:23:51.465Z,58.37
2022-08-09T21:26:17.978Z,58.83
2022-08-09T21:28:55.498Z,58.69
2022-08-09T21:31:49.364Z,58.86
2022-08-09T21:34:28.686Z,59.03
2022-08-09T21:37:00.319Z,59.17
2022-08-09T21:39:42.206Z,59.14
2022-08-09T21:42:13.094Z,58.61
2022-08-09T21:44:44.571Z,59.09
2022-08-09T21:47:17.443Z,59.09
2022-08-09T21:49:50.911Z,59.02
2022-08-09T21:52:22.166Z,59.39
2022-08-09T21:54:59.633Z,60.08
2022-08-09T21:57:39.437Z,60.39
2022-08-09T22:00:32.237Z,60.08
2022-08-09T22:03:05.985Z,60.22
2022-08-09T22:05:42.407Z,61.94
2022-08-09T22:08:15.366Z,61.33
2022-08-09T22:11:00.196Z,61.71
2022-08-09T22:13:37.748Z,65.43
2022-08-09T22:16:09.455Z,62.08
2022-08-09T22:18:53.021Z,56.90
2022-08-09T22:21:44.703Z,56.60
2022-08-09T22:24:20.961Z,57.50
2022-08-09T22:26:55.073Z,58.95
2022-08-09T22:29:34.493Z,59.80
2022-08-09T22:32:30.229Z,60.63
2022-08-09T22:35:06.415Z,60.35
2022-08-09T22:37:40.404Z,63.03
2022-08-09T22:40:20.262Z,65.55
2022-08-09T22:42:51.277Z,62.49
2022-08-09T22:48:13.620Z,58.10
2022-08-09T22:48:35.512Z,56.35
2022-08-09T22:51:10.395Z,57.84
2022-08-09T22:53:58.211Z,58.62
2022-08-09T22:56:34.082Z,59.89
2022-08-09T22:59:05.861Z,61.05
2022-08-09T23:01:55.610Z,61.59
2022-08-09T23:04:26.301Z,64.24
2022-08-09T23:08:23.318Z,63.72
2022-08-09T23:10:11.701Z,57.91
2022-08-09T23:12:42.323Z,57.01
2022-08-09T23:15:13.111Z,58.14
2022-08-09T23:17:43.584Z,59.33
2022-08-09T23:20:14.361Z,60.04
2022-08-09T23:22:45.481Z,61.28
2022-08-09T23:25:15.892Z,65.34
2022-08-09T23:27:57.903Z,64.81
2022-08-09T23:30:37.835Z,61.10
2022-08-09T23:33:08.205Z,55.19
2022-08-09T23:36:04.440Z,54.87
2022-08-09T23:38:29.289Z,57.19
2022-08-09T23:41:00.017Z,58.64
2022-08-09T23:43:30.955Z,58.57
2022-08-09T23:46:01.847Z,59.21
2022-08-09T23:48:32.333Z,60.10
2022-08-09T23:51:03.153Z,60.70
2022-08-09T23:53:37.514Z,61.35
2022-08-09T23:56:09.336Z,64.39
2022-08-09T23:58:39.822Z,62.62
